Terminal Aerodrome Forecast
Issued by NWS Charleston, WV

Current Version | Previous Version | Text Only | Print | Product List | Glossary Off
Versions: 1 2 3 4 5 6 7 8 9 10 11 12 13 14 15 16 17 18 19 20 21 22

000
FTUS41 KRLX 160900 AAA
TAFEKN
TAF AMD
KEKN 160904Z 1609/1706 00000KT P6SM SCT060 OVC070
     FM161100 16008KT 5SM -SHRA BR OVC025
     FM161500 20009KT 4SM -SHRA BR OVC017
     FM161700 23010KT 6SM -SHRA BR OVC012
     FM161900 25010G17KT P6SM OVC010
     FM170300 27010G16KT 5SM BR OVC010=

USA.gov is the U.S. government's official web portal to all federal, state and local government web resources and services.